Relevés horaires Florennes (Belgique)


Relevés horaires à Florennes - Mardi 24 Juin 2025
Heure UTC1 Température [°C] Vent [km/h] Hum. [%] Pres.4 [hPa] Visi. [Km] Nébu. [octa] Préc.5 [mm] Cond.
2m. Res. Ros. Dir.2 Vit. Moy. Raf.3
23:00 19.7 19.7 15.1 OSO 3.7 -- 7.4 75 1013.3(-0.2/3h) >70 -- -- --
22:00 20.1 20.1 15.1 O 5.6 -- 9.3 73 1013.6(-0.2/3h) 25 3/8 -- --
21:00 20.6 20.6 15.0 SO 5.6 11.1 16.7 70 1013.7(-0.2/3h) 25 3/8 -- --
20:00 21.2 21.2 14.8 OSO 5.6 -- 14.8 67 1013.6(-0.3/3h) 25 3/8 -- --
19:00 22.5 22.5 14.5 OSO 9.3 -- 16.7 61 1013.6(-0.3/3h) 25 5/8 -- --
18:00 22.9 22.9 14.2 O 9.3 -- 20.4 58 1013.7(-0.4/3h) 25 7/8 -- --
17:00 22.9 22.9 13.7 OSO 11.1 -- 18.5 56 1013.7(-0.8/3h) 25 7/8 -- --
16:00 23.2 23.2 13.1 OSO 9.3 -- 18.5 53 1014(-0.7/3h) 25 7/8 -- --
15:00 23.8 23.8 12.9 O 13.0 14.8 20.4 50 1014.1(-0.5/3h) 25 7/8 -- --
14:00 23.6 23.6 13.2 OSO 14.8 -- 20.4 52 1014.5(-0.4/3h) 25 7/8 -- --
13:00 22.3 22.3 11.8 SO 13.0 -- 18.5 51 1014.7(-0.7/3h) 25 5/8 -- --
12:00 22.4 22.4 11.2 OSO 13.0 -- 22.2 49 1014.8(-0.6/3h) 25 3/8 -- --
11:00 20.7 20.7 10.8 SO 11.1 -- 18.5 53 1015.2(0.0/3h) 25 3/8 -- --
10:00 19.0 19.0 10.8 OSO 13.0 -- 22.2 59 1016(0.1/3h) 25 3/8 -- --
07:00 14.3 13.6 10.1 OSO 11.1 13.0 18.5 76 1016.3(0.2/3h) 14 -- -- --
06:00 13.0 12.6 9.6 SO 7.4 -- 13.0 80 1016.2(0.0/3h) 25 2/8 -- --
05:00 11.1 10.8 8.8 SO 5.6 -- 11.1 86 1016.5(-0.3/3h) 15 -- -- --
04:00 10.1 9.7 8.0 OSO 5.6 -- 9.3 87 1016.6(-0.7/3h) 15 -- -- --
03:00 10.2 9.8 8.0 SO 5.6 5.6 9.3 86 1016.6(-0.9/3h) 15 -- -- --
02:00 10.5 10.2 7.6 OSO 5.6 -- 7.4 82 1017(-0.8/3h) 17 -- -- --
01:00 11.6 11.4 7.6 OSO 5.6 -- 7.4 76 1017.1(-0.3/3h) >70 -- -- --
00:00 12.0 11.9 7.4 O 5.6 -- 22.2 73 1017.3(0.0/3h) >70 -- -- --

1 Coordinated Universal Time. Actuellement il est 23:00 locale et 21:00 UTC.

2 Le vent souffle depuis la direction indiquée vers la direction oposée.

3 Les rafales max. sont disponible 40 min après l'heure du relevé.

4 Pour les stations d'altitude (plus de 600m) le géopotentiel du niveau le plus proche de la pression obligatoire est indiqué.

5 Les stations disposant d'un diffuseur peuvent indiquer "trace". Cela signifie que des précipitations ont touchés le sol mais que la quantité est inférieure à 0.1 mm.

Récapitulatif de la journée
Température [°C] Vent [km/h] Ensoleillement4 [h] Precipitations totale5 [mm] Pression [Hpa]
Min1 Max.2 Moy.3 Max. Min Max.
9.7 24.1 11.1 22.2 0 h 0 min 0 1013.3 1017.3

1 Température minimale relevée entre 18:00 UTC la veille et 18:00 UTC le jour donné.

2 Température maximale relevée entre 06:00 UTC le jour donné et 06:00 UTC le lendemain.

3 Vent moyen de la journée basé sur les relevés horaires.

4 Ensoleillement en heures relevé entre 06:00 UTC la veille et 06:00 UTC le jour donné.

5 Précipitations totales tombées entre 06:00 UTC la jour donné et 06:00 UTC le lendemain.

Graphiques horaires